createdAt,value
2023-03-24T00:01:53.858Z,11.93
2023-03-24T00:04:57.885Z,11.81
2023-03-24T00:08:02.647Z,11.68
2023-03-24T00:11:06.816Z,11.58
2023-03-24T00:14:11.386Z,11.50
2023-03-24T00:17:16.924Z,11.45
2023-03-24T00:20:19.785Z,11.39
2023-03-24T00:23:21.720Z,11.29
2023-03-24T00:26:24.207Z,11.20
2023-03-24T00:29:25.168Z,11.14
2023-03-24T00:32:26.828Z,11.09
2023-03-24T00:35:28.105Z,11.07
2023-03-24T00:38:29.216Z,11.06
2023-03-24T00:41:30.988Z,11.03
2023-03-24T00:44:32.446Z,10.96
2023-03-24T00:47:37.352Z,10.90
2023-03-24T00:50:38.503Z,10.87
2023-03-24T00:53:42.879Z,10.84
2023-03-24T00:56:48.926Z,10.80
2023-03-24T00:59:51.020Z,10.77
2023-03-24T01:02:54.590Z,10.77
2023-03-24T01:06:01.775Z,10.77
2023-03-24T01:09:05.258Z,10.76
2023-03-24T01:12:06.420Z,10.75
2023-03-24T01:15:12.733Z,10.71
2023-03-24T01:18:14.310Z,10.65
2023-03-24T01:21:15.441Z,10.62
2023-03-24T01:24:17.539Z,10.61
2023-03-24T01:27:18.573Z,10.56
2023-03-24T01:30:29.122Z,10.49
2023-03-24T01:33:30.384Z,10.43
2023-03-24T01:36:31.471Z,10.38
2023-03-24T01:39:32.675Z,10.33
2023-03-24T01:42:33.713Z,10.29
2023-03-24T01:45:58.389Z,10.27
2023-03-24T01:49:02.150Z,10.22
2023-03-24T01:52:06.057Z,10.17
2023-03-24T01:55:11.935Z,10.10
2023-03-24T01:58:13.067Z,10.03
2023-03-24T02:01:37.555Z,9.94
2023-03-24T02:05:02.924Z,9.83
2023-03-24T02:08:37.596Z,9.76
2023-03-24T02:11:39.441Z,9.73
2023-03-24T02:14:40.656Z,9.70
2023-03-24T02:18:03.027Z,9.66
2023-03-24T02:21:29.232Z,9.63
2023-03-24T02:24:51.199Z,9.63
2023-03-24T02:28:07.373Z,9.63
2023-03-24T02:31:47.089Z,9.70
2023-03-24T02:35:06.742Z,9.77
2023-03-24T02:38:21.833Z,9.81
2023-03-24T02:41:32.076Z,9.82
2023-03-24T02:44:39.010Z,9.80
2023-03-24T02:48:28.281Z,9.79
2023-03-24T02:51:39.517Z,9.77
2023-03-24T02:54:49.562Z,9.78
2023-03-24T02:57:57.063Z,9.79
2023-03-24T03:01:30.546Z,9.82
2023-03-24T03:05:05.970Z,9.83
2023-03-24T03:08:09.328Z,9.81
2023-03-24T03:11:13.825Z,9.78
2023-03-24T03:14:18.908Z,9.74
2023-03-24T03:17:33.607Z,9.68
2023-03-24T03:20:42.084Z,9.65
2023-03-24T03:23:50.188Z,9.60
2023-03-24T03:26:53.865Z,9.59
2023-03-24T03:30:21.088Z,9.62
2023-03-24T03:33:25.503Z,9.65
2023-03-24T03:36:31.836Z,9.65
2023-03-24T03:39:35.189Z,9.60
2023-03-24T03:42:38.797Z,9.53
2023-03-24T03:45:39.787Z,9.49
2023-03-24T03:48:41.589Z,9.49
2023-03-24T03:51:42.723Z,9.52
2023-03-24T03:54:43.862Z,9.55
2023-03-24T03:57:44.959Z,9.58
2023-03-24T04:01:05.824Z,9.64
2023-03-24T04:04:38.802Z,9.72
2023-03-24T04:08:25.424Z,9.73
2023-03-24T04:11:41.585Z,9.72
2023-03-24T04:14:48.305Z,9.67
2023-03-24T04:18:45.677Z,9.59
2023-03-24T04:22:08.582Z,9.52
2023-03-24T04:25:16.621Z,9.44
2023-03-24T04:28:25.676Z,9.33
2023-03-24T04:31:36.684Z,9.22
2023-03-24T04:34:41.022Z,9.17
2023-03-24T04:37:53.661Z,9.16
2023-03-24T04:40:59.293Z,9.11
2023-03-24T04:44:00.877Z,9.10
2023-03-24T04:47:04.930Z,9.09
2023-03-24T04:50:10.512Z,9.07
2023-03-24T04:53:11.541Z,9.05
2023-03-24T04:56:47.075Z,9.05
2023-03-24T05:00:15.268Z,9.06
2023-03-24T05:03:17.514Z,9.06
2023-03-24T05:06:18.356Z,9.05
2023-03-24T05:09:22.561Z,9.07
2023-03-24T05:12:23.942Z,9.08
2023-03-24T05:15:47.873Z,9.14
2023-03-24T05:19:09.068Z,9.21
2023-03-24T05:22:10.231Z,9.25
2023-03-24T05:25:11.394Z,9.27
2023-03-24T05:28:12.388Z,9.31
2023-03-24T05:31:13.364Z,9.36
2023-03-24T05:34:29.189Z,9.36
2023-03-24T05:37:47.376Z,9.31
2023-03-24T05:40:48.298Z,9.28
2023-03-24T05:43:52.336Z,9.27
2023-03-24T05:46:53.724Z,9.26
2023-03-24T05:49:54.950Z,9.27
2023-03-24T05:52:56.693Z,9.30
2023-03-24T05:56:11.389Z,9.35
2023-03-24T05:59:31.990Z,9.42
2023-03-24T06:02:51.810Z,9.49
2023-03-24T06:05:59.516Z,9.54
2023-03-24T06:09:01.882Z,9.58
2023-03-24T06:12:07.350Z,9.65
2023-03-24T06:15:10.796Z,9.74
2023-03-24T06:18:13.739Z,9.85
2023-03-24T06:21:17.874Z,9.99
2023-03-24T06:24:19.024Z,10.15
2023-03-24T06:27:24.904Z,10.30
2023-03-24T06:30:26.216Z,10.48
2023-03-24T06:33:27.148Z,10.65
2023-03-24T06:36:28.099Z,10.82
2023-03-24T06:39:29.324Z,10.96
2023-03-24T06:42:30.228Z,11.07
2023-03-24T06:45:32.346Z,11.19
2023-03-24T06:48:34.331Z,11.29
2023-03-24T06:51:38.823Z,11.39
2023-03-24T06:54:42.007Z,11.49
2023-03-24T06:57:44.058Z,11.60
2023-03-24T07:01:03.258Z,11.74
2023-03-24T07:04:14.177Z,11.89
2023-03-24T07:08:02.968Z,12.03
2023-03-24T07:11:06.317Z,12.23
2023-03-24T07:14:07.302Z,12.40
2023-03-24T07:17:08.657Z,12.59
2023-03-24T07:20:23.814Z,12.80
2023-03-24T07:23:29.676Z,12.99
2023-03-24T07:26:38.062Z,13.15
2023-03-24T07:29:47.096Z,13.31
2023-03-24T07:32:56.071Z,13.50
2023-03-24T07:38:57.694Z,13.79
2023-03-24T07:42:05.473Z,13.93
2023-03-24T07:45:13.604Z,14.05
2023-03-24T07:48:14.757Z,14.13
2023-03-24T07:51:17.360Z,14.20
2023-03-24T07:54:28.420Z,14.30
2023-03-24T07:57:29.383Z,14.36
2023-03-24T08:00:33.845Z,14.40
2023-03-24T08:03:57.766Z,14.46
2023-03-24T08:07:19.376Z,14.54
2023-03-24T08:10:30.613Z,14.60
2023-03-24T08:13:31.767Z,14.67
2023-03-24T08:16:32.715Z,14.77
2023-03-24T08:19:33.654Z,14.87
2023-03-24T08:22:38.802Z,14.88
2023-03-24T08:25:40.099Z,14.86
2023-03-24T08:28:41.249Z,14.85
2023-03-24T08:31:43.735Z,14.86
2023-03-24T08:34:44.700Z,14.87
2023-03-24T08:37:46.199Z,14.90
2023-03-24T08:40:48.329Z,14.97
2023-03-24T08:43:49.220Z,15.09
2023-03-24T08:46:50.229Z,15.17
2023-03-24T08:49:56.983Z,15.19
2023-03-24T08:52:58.098Z,15.20
2023-03-24T08:55:59.008Z,15.22
2023-03-24T08:59:00.000Z,15.26
2023-03-24T09:02:01.088Z,15.36
2023-03-24T09:05:02.248Z,15.49
2023-03-24T09:08:03.404Z,15.60
2023-03-24T09:11:05.124Z,15.67
2023-03-24T09:14:06.029Z,15.78
2023-03-24T09:17:06.925Z,15.91
2023-03-24T09:20:11.230Z,16.04
2023-03-24T09:23:12.313Z,16.13
2023-03-24T09:26:13.308Z,16.24
2023-03-24T09:29:14.299Z,16.35
2023-03-24T09:32:15.240Z,16.42
2023-03-24T09:35:16.370Z,16.46
2023-03-24T09:38:17.341Z,16.52
2023-03-24T09:41:27.258Z,16.60
2023-03-24T09:44:31.669Z,16.64
2023-03-24T09:47:43.363Z,16.67
2023-03-24T09:50:55.490Z,16.75
2023-03-24T09:54:15.182Z,16.81
2023-03-24T09:57:37.134Z,16.89
2023-03-24T10:00:46.696Z,16.98
2023-03-24T10:03:47.836Z,17.05
2023-03-24T10:06:52.693Z,17.11
2023-03-24T10:10:00.759Z,17.10
2023-03-24T10:13:07.334Z,17.07
2023-03-24T10:16:40.897Z,17.05
2023-03-24T10:19:59.667Z,17.09
2023-03-24T10:23:38.090Z,17.16
2023-03-24T10:26:38.970Z,17.25
2023-03-24T10:29:40.858Z,17.40
2023-03-24T10:32:42.399Z,17.56
2023-03-24T10:35:46.830Z,17.73
2023-03-24T10:38:48.378Z,17.90
2023-03-24T10:41:50.676Z,18.05
2023-03-24T10:44:52.173Z,18.17
2023-03-24T10:47:54.753Z,18.25
2023-03-24T10:50:58.054Z,18.30
2023-03-24T10:54:16.190Z,18.30
2023-03-24T10:57:18.094Z,18.32
2023-03-24T11:00:29.149Z,18.40
2023-03-24T11:03:32.068Z,18.48
2023-03-24T11:06:33.304Z,18.58
2023-03-24T11:09:49.829Z,18.67
2023-03-24T11:12:53.226Z,18.81
2023-03-24T11:16:28.886Z,18.88
2023-03-24T11:19:45.545Z,18.95
2023-03-24T11:23:04.343Z,18.98
2023-03-24T11:26:25.850Z,19.05
2023-03-24T11:29:37.889Z,19.07
2023-03-24T11:32:45.372Z,19.15
2023-03-24T11:35:52.788Z,19.22
2023-03-24T11:39:06.299Z,19.29
2023-03-24T11:42:13.122Z,19.35
2023-03-24T11:45:33.947Z,19.45
2023-03-24T11:48:44.917Z,19.53
2023-03-24T11:51:48.347Z,19.58
2023-03-24T11:54:49.502Z,19.64
2023-03-24T11:58:11.446Z,19.72
2023-03-24T12:01:23.696Z,19.85
2023-03-24T12:04:43.374Z,19.96
2023-03-24T12:07:44.233Z,20.13
2023-03-24T12:10:54.650Z,20.25
2023-03-24T12:13:57.132Z,20.35
2023-03-24T12:17:06.598Z,20.49
2023-03-24T12:20:14.185Z,20.53
2023-03-24T12:23:23.324Z,20.53
2023-03-24T12:26:31.864Z,20.54
2023-03-24T12:29:50.296Z,20.60
2023-03-24T12:33:23.452Z,20.69
2023-03-24T12:36:41.682Z,20.72
2023-03-24T12:40:01.546Z,20.73
2023-03-24T12:43:41.259Z,20.77
2023-03-24T12:46:54.001Z,20.70
2023-03-24T12:50:16.162Z,20.56
2023-03-24T12:53:28.692Z,20.60
2023-03-24T12:56:42.047Z,20.74
2023-03-24T12:59:48.430Z,20.89
2023-03-24T13:03:01.185Z,21.05
2023-03-24T13:06:28.738Z,21.17
2023-03-24T13:09:56.507Z,21.27
2023-03-24T13:13:20.562Z,21.31
2023-03-24T13:16:28.855Z,21.38
2023-03-24T13:19:30.699Z,21.25
2023-03-24T13:22:33.586Z,21.03
2023-03-24T13:25:40.016Z,20.93
2023-03-24T13:29:06.944Z,20.94
2023-03-24T13:32:24.750Z,21.03
2023-03-24T13:35:49.991Z,21.09
2023-03-24T13:38:59.303Z,21.17
2023-03-24T13:42:00.780Z,21.30
2023-03-24T13:45:06.771Z,21.36
2023-03-24T13:48:29.062Z,21.36
2023-03-24T13:51:32.078Z,21.29
2023-03-24T13:54:36.321Z,21.24
2023-03-24T13:57:41.292Z,21.13
2023-03-24T14:01:24.708Z,21.04
2023-03-24T14:04:42.464Z,20.92
2023-03-24T14:07:46.760Z,20.81
2023-03-24T14:10:49.473Z,20.74
2023-03-24T14:13:52.330Z,20.67
2023-03-24T14:17:05.129Z,20.63
2023-03-24T14:20:10.247Z,20.70
2023-03-24T14:23:41.845Z,20.91
2023-03-24T14:26:42.918Z,21.06
2023-03-24T14:29:50.411Z,21.15
2023-03-24T14:32:55.672Z,21.20
2023-03-24T14:36:00.949Z,21.22
2023-03-24T14:39:35.898Z,21.47
2023-03-24T14:42:36.720Z,21.63
2023-03-24T14:45:40.941Z,21.56
2023-03-24T14:48:55.646Z,21.57
2023-03-24T14:52:08.073Z,21.60
2023-03-24T14:55:18.857Z,21.59
2023-03-24T14:58:23.569Z,21.70
2023-03-24T15:01:26.439Z,21.82
2023-03-24T15:04:27.388Z,21.90
2023-03-24T15:07:28.365Z,22.14
2023-03-24T15:10:44.197Z,22.29
2023-03-24T15:13:50.767Z,22.47
2023-03-24T15:16:57.353Z,22.64
2023-03-24T15:19:58.935Z,22.70
2023-03-24T15:23:07.700Z,22.72
2023-03-24T15:26:13.595Z,22.80
2023-03-24T15:29:15.562Z,22.75
2023-03-24T15:32:21.423Z,22.66
2023-03-24T15:35:22.891Z,22.53
2023-03-24T15:38:32.903Z,22.35
2023-03-24T15:41:34.047Z,22.20
2023-03-24T15:44:39.329Z,22.02
2023-03-24T15:47:41.411Z,21.90
2023-03-24T15:50:54.172Z,21.77
2023-03-24T15:53:57.467Z,21.56
2023-03-24T15:57:09.146Z,21.38
2023-03-24T16:00:16.478Z,21.25
2023-03-24T16:03:18.892Z,21.14
2023-03-24T16:06:34.564Z,20.99
2023-03-24T16:09:40.115Z,20.80
2023-03-24T16:12:41.025Z,20.59
2023-03-24T16:16:02.957Z,20.43
2023-03-24T16:19:03.799Z,20.20
2023-03-24T16:22:10.951Z,20.01
2023-03-24T16:25:12.691Z,19.83
2023-03-24T16:28:15.902Z,19.69
2023-03-24T16:31:30.363Z,19.59
2023-03-24T16:34:31.277Z,19.45
2023-03-24T16:37:32.160Z,19.33
2023-03-24T16:40:38.968Z,19.26
2023-03-24T16:43:41.098Z,19.22
2023-03-24T16:46:45.871Z,19.17
2023-03-24T16:49:47.394Z,19.10
2023-03-24T16:52:48.335Z,19.07
2023-03-24T16:55:49.671Z,19.03
2023-03-24T16:58:55.629Z,18.98
2023-03-24T17:02:02.325Z,18.93
2023-03-24T17:05:23.704Z,18.88
2023-03-24T17:08:24.617Z,18.82
2023-03-24T17:11:28.285Z,18.75
2023-03-24T17:14:30.426Z,18.68
2023-03-24T17:17:31.593Z,18.61
2023-03-24T17:20:34.234Z,18.57
2023-03-24T17:23:36.426Z,18.51
2023-03-24T17:26:37.597Z,18.43
2023-03-24T17:29:38.429Z,18.34
2023-03-24T17:32:39.311Z,18.28
2023-03-24T17:35:40.324Z,18.24
2023-03-24T17:38:42.914Z,18.20
2023-03-24T17:41:44.036Z,18.16
2023-03-24T17:44:44.926Z,18.13
2023-03-24T17:47:47.062Z,18.07
2023-03-24T17:50:48.228Z,18.03
2023-03-24T17:53:49.231Z,18.00
2023-03-24T17:56:50.843Z,17.98
2023-03-24T17:59:53.084Z,17.98
2023-03-24T18:02:54.203Z,17.97
2023-03-24T18:05:55.582Z,17.95
2023-03-24T18:08:59.313Z,17.94
2023-03-24T18:12:00.239Z,17.92
2023-03-24T18:15:01.380Z,17.88
2023-03-24T18:18:02.583Z,17.83
2023-03-24T18:21:06.349Z,17.79
2023-03-24T18:24:07.794Z,17.74
2023-03-24T18:27:09.281Z,17.68
2023-03-24T18:30:12.899Z,17.62
2023-03-24T18:33:15.299Z,17.54
2023-03-24T18:36:20.251Z,17.45
2023-03-24T18:39:22.038Z,17.34
2023-03-24T18:42:23.005Z,17.27
2023-03-24T18:45:23.864Z,17.21
2023-03-24T18:48:25.055Z,17.16
2023-03-24T18:51:26.584Z,17.13
2023-03-24T18:54:27.752Z,17.09
2023-03-24T18:57:30.472Z,17.06
2023-03-24T19:00:31.291Z,17.02
2023-03-24T19:03:34.850Z,16.98
2023-03-24T19:06:36.590Z,16.94
2023-03-24T19:09:37.587Z,16.89
2023-03-24T19:12:38.416Z,16.85
2023-03-24T19:15:39.980Z,16.79
2023-03-24T19:18:40.956Z,16.73
2023-03-24T19:21:42.189Z,16.64
2023-03-24T19:24:43.174Z,16.56
2023-03-24T19:27:44.683Z,16.48
2023-03-24T19:30:45.614Z,16.41
2023-03-24T19:33:46.685Z,16.35
2023-03-24T19:36:49.530Z,16.29
2023-03-24T19:39:52.240Z,16.24
2023-03-24T19:42:53.406Z,16.21
2023-03-24T19:45:55.079Z,16.17
2023-03-24T19:48:56.179Z,16.12
2023-03-24T19:51:57.682Z,16.07
2023-03-24T19:54:58.887Z,16.03
2023-03-24T19:57:59.834Z,15.97
2023-03-24T20:01:00.811Z,15.91
2023-03-24T20:04:05.043Z,15.83
2023-03-24T20:07:06.005Z,15.79
2023-03-24T20:10:07.531Z,15.75
2023-03-24T20:13:09.303Z,15.72
2023-03-24T20:16:10.394Z,15.70
2023-03-24T20:19:11.350Z,15.66
2023-03-24T20:22:12.462Z,15.62
2023-03-24T20:25:15.177Z,15.58
2023-03-24T20:28:17.091Z,15.52
2023-03-24T20:31:18.238Z,15.46
2023-03-24T20:34:19.128Z,15.40
2023-03-24T20:37:20.092Z,15.33
2023-03-24T20:40:26.173Z,15.29
2023-03-24T20:43:27.970Z,15.24
2023-03-24T20:46:28.848Z,15.20
2023-03-24T20:49:30.216Z,15.17
2023-03-24T20:52:32.066Z,15.13
2023-03-24T20:55:33.014Z,15.10
2023-03-24T20:58:37.557Z,15.04
2023-03-24T21:01:41.312Z,14.99
2023-03-24T21:04:42.600Z,14.93
2023-03-24T21:07:44.821Z,14.85
2023-03-24T21:10:45.727Z,14.80
2023-03-24T21:13:46.884Z,14.79
2023-03-24T21:16:47.846Z,14.77
2023-03-24T21:19:49.999Z,14.73
2023-03-24T21:22:54.263Z,14.70
2023-03-24T21:25:55.213Z,14.66
2023-03-24T21:28:56.181Z,14.61
2023-03-24T21:31:57.093Z,14.54
2023-03-24T21:34:58.031Z,14.46
2023-03-24T21:38:00.481Z,14.41
2023-03-24T21:41:01.641Z,14.38
2023-03-24T21:44:03.249Z,14.35
2023-03-24T21:47:04.148Z,14.32
2023-03-24T21:50:05.892Z,14.30
2023-03-24T21:53:14.414Z,14.28
2023-03-24T21:56:15.408Z,14.28
2023-03-24T21:59:16.356Z,14.28
2023-03-24T22:02:17.734Z,14.30
2023-03-24T22:05:23.774Z,14.32
2023-03-24T22:08:26.054Z,14.36
2023-03-24T22:11:26.920Z,14.42
2023-03-24T22:14:28.004Z,14.48
2023-03-24T22:17:29.023Z,14.55
2023-03-24T22:20:32.333Z,14.61
2023-03-24T22:23:36.149Z,14.66
2023-03-24T22:26:37.019Z,14.70
2023-03-24T22:29:38.786Z,14.71
2023-03-24T22:32:39.960Z,14.73
2023-03-24T22:35:41.095Z,14.75
2023-03-24T22:38:42.171Z,14.78
2023-03-24T22:41:43.218Z,14.80
2023-03-24T22:44:44.134Z,14.84
2023-03-24T22:47:45.101Z,14.88
2023-03-24T22:50:46.583Z,14.92
2023-03-24T22:53:47.892Z,14.97
2023-03-24T22:56:48.873Z,15.02
2023-03-24T22:59:50.033Z,15.06
2023-03-24T23:02:51.026Z,15.08
2023-03-24T23:05:52.222Z,15.07
2023-03-24T23:08:54.112Z,15.07
2023-03-24T23:11:55.049Z,15.06
2023-03-24T23:14:55.942Z,15.03
2023-03-24T23:17:57.855Z,15.01
2023-03-24T23:21:07.316Z,14.99
2023-03-24T23:24:08.255Z,14.97
2023-03-24T23:27:09.210Z,14.96
2023-03-24T23:30:11.681Z,14.94
2023-03-24T23:33:14.318Z,14.94
2023-03-24T23:36:18.951Z,14.95
2023-03-24T23:39:20.137Z,14.96
2023-03-24T23:42:20.993Z,14.99
2023-03-24T23:45:22.019Z,15.02
2023-03-24T23:48:23.884Z,15.06
2023-03-24T23:51:24.817Z,15.09
2023-03-24T23:54:25.773Z,15.10
2023-03-24T23:57:26.672Z,15.11
